Time;durP1;ratioP1;P1;durP2;ratioP2;P2;SDS_P1;SDS_P2;PMS_P1;PMS_P2;Temp;Humidity;BMP_temperature;BMP_pressure;BME280_temperature;BME280_humidity;BME280_pressure;Samples;Min_cycle;Max_cycle;Signal;HPM_P1;HPM_P2
2022/06/10 00:02:05;;;;;;;;;;;24.70;50.40;;;;;;5056375;28;19912;-63
2022/06/10 00:04:32;;;;;;;;;;;24.70;50.40;;;;;;5074175;28;19995;-63
2022/06/10 00:06:58;;;;;;;;;;;24.70;50.30;;;;;;5089731;28;20368;-62
2022/06/10 00:09:24;;;;;;;;;;;24.70;50.30;;;;;;5073855;28;19915;-63
2022/06/10 00:11:49;;;;;;;;;;;24.70;50.30;;;;;;5073966;28;19970;-63
2022/06/10 00:14:14;;;;;;;;;;;24.70;50.30;;;;;;5074005;28;20554;-63
2022/06/10 00:16:40;;;;;;;;;;;24.70;50.30;;;;;;5073891;28;20276;-63
2022/06/10 00:19:05;;;;;;;;;;;24.70;50.40;;;;;;5073968;28;20280;-63
2022/06/10 00:21:31;;;;;;;;;;;24.60;50.30;;;;;;5073784;28;19912;-63
2022/06/10 00:23:56;;;;;;;;;;;24.60;50.30;;;;;;5073688;28;19912;-63
2022/06/10 00:26:22;;;;;;;;;;;24.60;50.40;;;;;;5073742;28;19940;-63
2022/06/10 00:28:48;;;;;;;;;;;24.60;50.40;;;;;;5073734;28;19916;-63
2022/06/10 00:31:14;;;;;;;;;;;24.60;50.40;;;;;;5073628;28;20389;-63
2022/06/10 00:33:40;;;;;;;;;;;24.60;50.40;;;;;;5072342;28;19943;-64
2022/06/10 00:36:06;;;;;;;;;;;24.60;50.40;;;;;;5073523;28;19913;-64
2022/06/10 00:38:32;;;;;;;;;;;24.50;50.30;;;;;;5073829;28;19908;-64
2022/06/10 00:40:57;;;;;;;;;;;24.60;50.40;;;;;;5089021;28;20292;-63
2022/06/10 00:43:24;;;;;;;;;;;24.50;50.40;;;;;;5073454;28;20387;-63
2022/06/10 00:45:53;;;;;;;;;;;24.50;50.50;;;;;;5072226;28;20276;-63
2022/06/10 00:48:24;;;;;;;;;;;24.50;50.60;;;;;;5073329;28;20371;-63
2022/06/10 00:50:50;;;;;;;;;;;24.50;50.60;;;;;;5073451;28;19939;-64
2022/06/10 00:53:16;;;;;;;;;;;24.50;50.60;;;;;;5055368;28;20361;-63
2022/06/10 00:55:42;;;;;;;;;;;24.50;50.60;;;;;;5073375;28;19999;-63
2022/06/10 00:58:14;;;;;;;;;;;24.50;50.60;;;;;;5073377;28;20325;-64
2022/06/10 01:00:39;;;;;;;;;;;24.50;50.70;;;;;;5073431;28;19965;-64
2022/06/10 01:03:05;;;;;;;;;;;24.50;50.60;;;;;;5073112;28;19916;-63
2022/06/10 01:05:30;;;;;;;;;;;24.40;50.50;;;;;;5088712;28;20007;-63
2022/06/10 01:08:10;;;;;;;;;;;24.40;50.50;;;;;;5073112;28;19963;-63
2022/06/10 01:10:56;;;;;;;;;;;24.40;50.50;;;;;;5038538;28;20372;-63
2022/06/10 01:13:36;;;;;;;;;;;24.40;50.50;;;;;;5072506;28;20427;-63
2022/06/10 01:16:05;;;;;;;;;;;24.40;50.50;;;;;;5073012;28;19947;-63
2022/06/10 01:18:33;;;;;;;;;;;24.40;50.60;;;;;;5055588;28;20379;-63
2022/06/10 01:21:01;;;;;;;;;;;24.40;50.60;;;;;;5072998;28;19908;-63
2022/06/10 01:24:06;;;;;;;;;;;24.40;50.60;;;;;;5072923;28;19913;-63
2022/06/10 01:27:47;;;;;;;;;;;24.40;50.60;;;;;;5011200;28;19910;-63
2022/06/10 01:29:31;;;;;;;;;;;24.30;50.50;;;;;;5011598;28;19921;-63
2022/06/10 01:31:58;;;;;;;;;;;24.40;50.50;;;;;;5058821;28;19909;-63
2022/06/10 01:34:29;;;;;;;;;;;24.40;50.60;;;;;;5059130;28;19912;-64
2022/06/10 01:37:00;;;;;;;;;;;24.30;50.50;;;;;;5059054;28;19960;-63
2022/06/10 01:39:32;;;;;;;;;;;24.30;50.50;;;;;;5077091;28;20295;-63
2022/06/10 01:42:07;;;;;;;;;;;24.40;50.60;;;;;;5058843;28;19908;-63
2022/06/10 01:44:51;;;;;;;;;;;24.30;50.50;;;;;;5076927;28;19954;-63
2022/06/10 01:47:24;;;;;;;;;;;24.30;50.50;;;;;;5076723;28;20015;-63
2022/06/10 01:49:57;;;;;;;;;;;24.30;50.60;;;;;;5076785;28;19919;-63
2022/06/10 01:52:25;;;;;;;;;;;24.30;50.60;;;;;;5076739;28;19914;-63
2022/06/10 01:55:02;;;;;;;;;;;24.30;50.60;;;;;;5058800;28;20012;-63
2022/06/10 01:57:32;;;;;;;;;;;24.30;50.60;;;;;;5076713;28;19931;-63
2022/06/10 02:00:00;;;;;;;;;;;24.30;50.60;;;;;;5058666;28;19915;-63
2022/06/10 02:02:27;;;;;;;;;;;24.30;50.60;;;;;;5058735;28;19908;-63
2022/06/10 02:04:53;;;;;;;;;;;24.30;50.50;;;;;;5058610;28;19909;-63
2022/06/10 02:07:20;;;;;;;;;;;24.30;50.50;;;;;;5076482;28;20391;-63
2022/06/10 02:09:46;;;;;;;;;;;24.30;50.40;;;;;;5058332;28;19920;-63
2022/06/10 02:12:15;;;;;;;;;;;24.30;51.10;;;;;;5058465;28;19931;-63
2022/06/10 02:14:44;;;;;;;;;;;24.30;50.50;;;;;;5058473;28;19915;-63
2022/06/10 02:17:09;;;;;;;;;;;24.30;50.60;;;;;;5058407;28;19990;-63
2022/06/10 02:19:36;;;;;;;;;;;24.20;50.40;;;;;;5058400;28;20360;-63
2022/06/10 02:22:04;;;;;;;;;;;24.20;50.50;;;;;;5058298;28;19930;-63
2022/06/10 02:24:31;;;;;;;;;;;24.20;50.50;;;;;;5058525;28;19915;-65
2022/06/10 02:26:58;;;;;;;;;;;24.20;50.50;;;;;;5076125;28;19912;-64
2022/06/10 02:29:29;;;;;;;;;;;24.20;50.50;;;;;;5058098;28;20370;-64
2022/06/10 02:31:58;;;;;;;;;;;24.30;50.50;;;;;;5075969;28;19915;-63
2022/06/10 02:34:23;;;;;;;;;;;24.30;50.40;;;;;;5058145;28;19909;-63
2022/06/10 02:36:50;;;;;;;;;;;24.20;50.30;;;;;;5075809;28;20295;-63
2022/06/10 02:39:15;;;;;;;;;;;24.20;50.40;;;;;;5057918;28;20436;-63
2022/06/10 02:41:49;;;;;;;;;;;24.20;50.50;;;;;;5075769;28;19936;-63
2022/06/10 02:44:15;;;;;;;;;;;24.20;50.50;;;;;;5075726;28;19955;-63
2022/06/10 02:46:54;;;;;;;;;;;24.20;50.50;;;;;;5075657;28;19964;-64
2022/06/10 02:49:19;;;;;;;;;;;24.10;50.50;;;;;;5075815;28;20429;-63
2022/06/10 02:51:46;;;;;;;;;;;24.10;50.50;;;;;;5057655;28;19912;-63
2022/06/10 02:54:16;;;;;;;;;;;24.10;50.50;;;;;;5057971;28;19912;-63
2022/06/10 02:56:41;;;;;;;;;;;24.10;50.50;;;;;;5075651;28;19909;-63
2022/06/10 03:01:55;;;;;;;;;;;24.10;50.30;;;;;;5075473;28;20420;-63
2022/06/10 03:04:39;;;;;;;;;;;24.20;50.40;;;;;;5057472;28;20284;-63
2022/06/10 03:07:14;;;;;;;;;;;24.10;50.50;;;;;;5075290;28;19912;-63
2022/06/10 03:09:39;;;;;;;;;;;24.10;50.40;;;;;;5075182;28;19951;-63
2022/06/10 03:12:12;;;;;;;;;;;24.10;50.40;;;;;;5075162;28;19950;-63
2022/06/10 03:14:43;;;;;;;;;;;24.10;50.50;;;;;;5075244;28;20372;-64
2022/06/10 03:17:29;;;;;;;;;;;24.00;50.70;;;;;;5057706;28;19959;-63
2022/06/10 03:20:12;;;;;;;;;;;24.00;50.70;;;;;;5075014;28;19908;-63
2022/06/10 03:22:41;;;;;;;;;;;24.00;50.50;;;;;;5074988;28;19998;-63
2022/06/10 03:25:06;;;;;;;;;;;24.10;50.50;;;;;;5074970;28;20386;-63
2022/06/10 03:27:38;;;;;;;;;;;24.10;50.40;;;;;;5075338;28;19913;-63
2022/06/10 03:30:14;;;;;;;;;;;24.10;50.40;;;;;;5074819;28;19919;-62
2022/06/10 03:32:51;;;;;;;;;;;24.10;50.40;;;;;;5057260;28;19908;-63
2022/06/10 03:35:18;;;;;;;;;;;24.10;50.40;;;;;;5056959;28;19999;-63
2022/06/10 03:37:44;;;;;;;;;;;24.10;50.50;;;;;;5056991;28;19915;-63
2022/06/10 03:40:16;;;;;;;;;;;24.10;50.50;;;;;;5056815;28;19908;-63
2022/06/10 03:42:44;;;;;;;;;;;24.10;50.40;;;;;;5074690;28;19916;-63
2022/06/10 03:45:12;;;;;;;;;;;24.10;50.40;;;;;;5056698;28;19954;-62
2022/06/10 03:47:38;;;;;;;;;;;24.10;50.30;;;;;;5056523;28;19920;-63
2022/06/10 03:50:05;;;;;;;;;;;24.10;50.30;;;;;;5074388;28;19966;-63
2022/06/10 03:52:32;;;;;;;;;;;24.10;50.30;;;;;;5074026;28;19909;-63
2022/06/10 03:54:57;;;;;;;;;;;24.10;50.40;;;;;;5056526;28;20399;-64
2022/06/10 03:57:22;;;;;;;;;;;24.10;50.30;;;;;;5074356;28;19909;-64
2022/06/10 03:59:48;;;;;;;;;;;24.10;50.30;;;;;;5074283;28;20065;-63
2022/06/10 04:02:13;;;;;;;;;;;24.10;50.40;;;;;;5074305;28;19912;-63
2022/06/10 04:04:39;;;;;;;;;;;24.10;50.40;;;;;;5056354;28;19994;-63
2022/06/10 04:07:05;;;;;;;;;;;24.00;50.30;;;;;;5074122;28;20372;-63
2022/06/10 04:09:31;;;;;;;;;;;24.00;50.30;;;;;;5073933;28;20391;-63
2022/06/10 04:11:56;;;;;;;;;;;24.00;50.40;;;;;;5074182;28;19912;-63
2022/06/10 04:14:22;;;;;;;;;;;24.10;50.40;;;;;;5056107;28;20379;-63
2022/06/10 04:16:48;;;;;;;;;;;24.00;50.30;;;;;;5073885;28;19946;-63
2022/06/10 04:19:13;;;;;;;;;;;24.10;50.40;;;;;;5073929;28;19915;-63
2022/06/10 04:21:39;;;;;;;;;;;24.00;50.30;;;;;;5073812;28;19908;-63
2022/06/10 04:24:04;;;;;;;;;;;24.00;50.30;;;;;;5073757;28;19909;-64
2022/06/10 04:26:30;;;;;;;;;;;24.00;50.30;;;;;;5055879;28;20364;-64
2022/06/10 04:28:55;;;;;;;;;;;24.00;50.40;;;;;;5073611;28;20287;-64
2022/06/10 04:31:21;;;;;;;;;;;24.00;50.50;;;;;;5073580;28;19934;-64
2022/06/10 04:33:46;;;;;;;;;;;23.90;50.60;;;;;;5073576;28;20277;-63
2022/06/10 04:36:13;;;;;;;;;;;23.90;50.50;;;;;;5073555;28;19913;-63
2022/06/10 04:38:38;;;;;;;;;;;23.80;50.60;;;;;;5073739;28;19935;-63
2022/06/10 04:41:06;;;;;;;;;;;23.80;50.70;;;;;;5055638;28;19916;-63
2022/06/10 04:43:31;;;;;;;;;;;23.80;50.90;;;;;;5073440;28;19909;-63
2022/06/10 04:45:57;;;;;;;;;;;23.80;50.90;;;;;;5073302;28;20007;-63
2022/06/10 04:48:24;;;;;;;;;;;23.80;50.80;;;;;;5055399;28;20391;-63
2022/06/10 04:50:49;;;;;;;;;;;23.80;51.40;;;;;;5073274;28;20006;-63
2022/06/10 04:53:15;;;;;;;;;;;23.80;50.70;;;;;;5073316;28;20388;-63
2022/06/10 04:55:40;;;;;;;;;;;23.80;50.70;;;;;;5073322;28;19908;-63
2022/06/10 04:58:06;;;;;;;;;;;23.80;50.70;;;;;;5073185;28;19912;-63
2022/06/10 05:00:32;;;;;;;;;;;23.80;50.70;;;;;;5072015;28;19944;-63
2022/06/10 05:02:58;;;;;;;;;;;23.80;50.70;;;;;;5073061;28;19908;-63
2022/06/10 05:05:24;;;;;;;;;;;23.80;50.70;;;;;;5054578;28;20368;-63
2022/06/10 05:07:49;;;;;;;;;;;23.80;50.70;;;;;;5055209;28;20360;-63
2022/06/10 05:10:15;;;;;;;;;;;23.80;50.60;;;;;;5088701;28;19912;-63
2022/06/10 05:12:40;;;;;;;;;;;23.80;50.60;;;;;;5073112;28;19991;-63
2022/06/10 05:15:06;;;;;;;;;;;23.80;50.70;;;;;;5072980;28;20392;-63
2022/06/10 05:17:32;;;;;;;;;;;23.80;50.60;;;;;;5073081;28;20000;-63
2022/06/10 05:19:57;;;;;;;;;;;23.80;50.60;;;;;;5088712;28;19909;-63
2022/06/10 05:22:23;;;;;;;;;;;23.80;50.60;;;;;;5073066;28;19909;-63
2022/06/10 05:24:48;;;;;;;;;;;23.80;50.60;;;;;;5073086;28;19916;-63
2022/06/10 05:27:13;;;;;;;;;;;23.80;50.50;;;;;;5073015;28;19909;-63
2022/06/10 05:29:39;;;;;;;;;;;23.80;50.50;;;;;;5072966;28;20370;-63
2022/06/10 05:32:05;;;;;;;;;;;23.80;50.60;;;;;;5072964;28;20344;-63
2022/06/10 05:34:46;;;;;;;;;;;23.80;50.60;;;;;;5072980;28;19912;-63
2022/06/10 05:37:12;;;;;;;;;;;23.80;50.60;;;;;;5057363;28;19908;-63
2022/06/10 05:39:38;;;;;;;;;;;23.80;50.60;;;;;;5072830;28;20280;-63
2022/06/10 05:42:08;;;;;;;;;;;23.80;50.70;;;;;;5072806;28;19908;-63
2022/06/10 05:44:35;;;;;;;;;;;23.80;50.60;;;;;;5072839;28;19909;-63
2022/06/10 05:47:00;;;;;;;;;;;23.80;50.60;;;;;;5072557;28;20305;-63
2022/06/10 05:49:26;;;;;;;;;;;23.80;50.50;;;;;;5073071;28;19916;-63
2022/06/10 05:51:51;;;;;;;;;;;23.80;50.50;;;;;;5054700;28;19966;-63
2022/06/10 05:54:17;;;;;;;;;;;23.80;50.50;;;;;;5072648;28;19931;-63
2022/06/10 05:56:45;;;;;;;;;;;23.80;50.50;;;;;;5072648;28;20326;-63
2022/06/10 05:59:11;;;;;;;;;;;23.80;50.50;;;;;;5072649;28;19908;-63
2022/06/10 06:01:36;;;;;;;;;;;23.90;50.40;;;;;;5072604;28;20414;-63
2022/06/10 06:04:02;;;;;;;;;;;23.90;50.40;;;;;;5072489;28;20355;-63
2022/06/10 06:06:27;;;;;;;;;;;23.90;50.40;;;;;;5072628;28;20364;-63
2022/06/10 06:08:53;;;;;;;;;;;23.90;50.40;;;;;;5072475;28;19915;-63
2022/06/10 06:11:18;;;;;;;;;;;23.90;50.40;;;;;;5088047;28;19959;-63
2022/06/10 06:13:44;;;;;;;;;;;23.90;50.30;;;;;;5088117;28;19915;-63
2022/06/10 06:16:11;;;;;;;;;;;23.90;50.40;;;;;;5074656;28;19909;-63
2022/06/10 06:18:37;;;;;;;;;;;23.80;50.30;;;;;;5058591;28;19923;-63
2022/06/10 06:21:03;;;;;;;;;;;23.90;50.40;;;;;;5076173;28;19909;-62
2022/06/10 06:23:28;;;;;;;;;;;23.90;50.40;;;;;;5076346;28;19957;-63
2022/06/10 06:25:54;;;;;;;;;;;23.80;50.30;;;;;;5074774;28;20315;-63
2022/06/10 06:28:19;;;;;;;;;;;23.80;50.50;;;;;;5075989;28;19908;-63
2022/06/10 06:30:44;;;;;;;;;;;23.80;50.50;;;;;;5091650;28;19961;-63
2022/06/10 06:33:10;;;;;;;;;;;23.80;50.50;;;;;;5076000;28;19912;-63
2022/06/10 06:35:36;;;;;;;;;;;23.80;50.50;;;;;;5058100;28;19991;-62
2022/06/10 06:38:01;;;;;;;;;;;23.80;50.40;;;;;;5075759;28;19908;-63
2022/06/10 06:40:28;;;;;;;;;;;23.80;50.30;;;;;;5075806;28;19909;-63
2022/06/10 06:42:53;;;;;;;;;;;23.80;50.30;;;;;;5075695;28;19915;-63
2022/06/10 06:45:19;;;;;;;;;;;23.80;50.20;;;;;;5075775;28;19969;-63
2022/06/10 06:47:44;;;;;;;;;;;23.80;50.20;;;;;;5075570;28;19927;-63
2022/06/10 06:50:11;;;;;;;;;;;23.80;50.30;;;;;;5057616;28;19912;-63
2022/06/10 06:52:36;;;;;;;;;;;23.80;50.30;;;;;;5057693;28;20109;-63
2022/06/10 06:55:02;;;;;;;;;;;23.80;50.30;;;;;;5075506;28;20376;-63
2022/06/10 06:57:27;;;;;;;;;;;23.80;50.40;;;;;;5091191;28;19909;-63
2022/06/10 06:59:53;;;;;;;;;;;23.70;50.40;;;;;;5075513;28;19908;-63
2022/06/10 07:02:19;;;;;;;;;;;23.80;50.30;;;;;;5057719;28;19912;-63
2022/06/10 07:04:44;;;;;;;;;;;23.80;50.20;;;;;;5075345;28;20054;-63
2022/06/10 07:07:10;;;;;;;;;;;23.80;50.20;;;;;;5075397;28;19916;-63
2022/06/10 07:09:35;;;;;;;;;;;23.80;50.10;;;;;;5075234;28;19954;-63
2022/06/10 07:12:01;;;;;;;;;;;23.80;50.00;;;;;;5090756;28;19908;-63
2022/06/10 07:14:26;;;;;;;;;;;23.80;50.10;;;;;;5075229;28;19913;-63
2022/06/10 07:16:52;;;;;;;;;;;23.80;50.00;;;;;;5075424;28;19915;-63
2022/06/10 07:19:19;;;;;;;;;;;23.90;50.00;;;;;;5090630;28;19995;-63
2022/06/10 07:21:44;;;;;;;;;;;23.80;49.80;;;;;;5075161;28;20276;-62
2022/06/10 07:24:10;;;;;;;;;;;23.90;50.00;;;;;;5075001;28;19916;-64
2022/06/10 07:26:35;;;;;;;;;;;23.80;50.10;;;;;;5074615;28;19916;-63
2022/06/10 07:29:01;;;;;;;;;;;23.70;50.10;;;;;;5056425;28;19912;-63
2022/06/10 07:31:26;;;;;;;;;;;23.70;50.20;;;;;;5090441;28;19924;-63
2022/06/10 07:33:52;;;;;;;;;;;23.70;50.20;;;;;;5074819;28;20311;-63
2022/06/10 07:36:17;;;;;;;;;;;23.70;50.20;;;;;;5074868;28;19948;-63
2022/06/10 07:38:43;;;;;;;;;;;23.70;50.20;;;;;;5074641;28;19912;-63
2022/06/10 07:43:52;;;;;;;;;;;23.60;50.20;;;;;;5059509;28;19915;-63
2022/06/10 07:46:18;;;;;;;;;;;23.60;50.30;;;;;;5074625;28;19995;-63
2022/06/10 07:48:43;;;;;;;;;;;23.50;50.40;;;;;;5056687;28;19939;-63
2022/06/10 07:51:09;;;;;;;;;;;23.50;50.40;;;;;;5074651;28;19913;-63
2022/06/10 07:53:34;;;;;;;;;;;23.50;50.50;;;;;;5074368;28;19999;-63
2022/06/10 07:56:00;;;;;;;;;;;23.50;50.40;;;;;;5074413;28;19912;-63
2022/06/10 07:58:28;;;;;;;;;;;23.50;50.30;;;;;;5074357;28;19996;-63
2022/06/10 08:00:54;;;;;;;;;;;23.50;50.10;;;;;;5056774;28;19944;-63
2022/06/10 08:03:19;;;;;;;;;;;23.50;50.30;;;;;;5074191;28;19916;-63
2022/06/10 08:05:45;;;;;;;;;;;23.50;50.30;;;;;;5074182;28;19966;-63
2022/06/10 08:08:12;;;;;;;;;;;23.50;50.40;;;;;;5074303;28;20456;-63
2022/06/10 08:10:38;;;;;;;;;;;23.50;50.40;;;;;;5056173;28;19912;-63
2022/06/10 08:13:04;;;;;;;;;;;23.50;50.30;;;;;;5073962;28;20376;-63
2022/06/10 08:15:29;;;;;;;;;;;23.60;50.00;;;;;;5074098;28;19908;-63
2022/06/10 08:17:58;;;;;;;;;;;23.60;49.90;;;;;;5074012;28;19958;-63
2022/06/10 08:22:32;;;;;;;;;;;23.70;49.70;;;;;;5073940;28;19909;-63
2022/06/10 08:23:10;;;;;;;;;;;23.90;49.40;;;;;;5058896;28;19915;-63
2022/06/10 08:25:36;;;;;;;;;;;23.90;49.10;;;;;;5073743;28;19908;-63
2022/06/10 08:28:01;;;;;;;;;;;24.00;48.80;;;;;;5073724;28;19909;-63
2022/06/10 08:30:27;;;;;;;;;;;24.10;48.90;;;;;;5073601;28;19923;-63
2022/06/10 08:32:52;;;;;;;;;;;24.10;49.00;;;;;;5073556;28;19915;-63
2022/06/10 08:35:18;;;;;;;;;;;24.10;49.00;;;;;;5073831;28;20008;-63
2022/06/10 08:37:43;;;;;;;;;;;24.10;49.10;;;;;;5073463;28;19909;-63
2022/06/10 08:40:09;;;;;;;;;;;24.10;49.00;;;;;;5073333;28;19958;-63
2022/06/10 08:42:35;;;;;;;;;;;24.10;49.00;;;;;;5055872;28;19908;-63
2022/06/10 08:45:17;;;;;;;;;;;24.10;48.80;;;;;;5073393;28;20413;-63
2022/06/10 08:48:01;;;;;;;;;;;24.20;49.10;;;;;;5073314;28;19978;-63
2022/06/10 08:50:35;;;;;;;;;;;24.20;49.10;;;;;;5073316;28;19912;-63
2022/06/10 08:53:19;;;;;;;;;;;24.20;49.00;;;;;;5055409;28;19908;-63
2022/06/10 08:56:00;;;;;;;;;;;24.20;49.00;;;;;;5073275;28;20265;-63
2022/06/10 08:58:29;;;;;;;;;;;24.20;49.10;;;;;;5073461;28;19951;-63
2022/06/10 09:00:58;;;;;;;;;;;24.10;48.90;;;;;;5073224;28;20367;-63
2022/06/10 09:03:29;;;;;;;;;;;24.10;49.10;;;;;;5055344;28;20386;-63
2022/06/10 09:05:59;;;;;;;;;;;24.10;49.00;;;;;;5055491;28;20376;-63
2022/06/10 09:08:25;;;;;;;;;;;24.10;48.90;;;;;;5073075;28;19955;-63
2022/06/10 09:11:10;;;;;;;;;;;24.20;49.20;;;;;;5055180;28;19912;-63
2022/06/10 09:13:36;;;;;;;;;;;24.20;48.90;;;;;;5073133;28;19916;-63
2022/06/10 09:16:07;;;;;;;;;;;24.20;49.10;;;;;;5073135;28;19913;-63
2022/06/10 09:18:39;;;;;;;;;;;24.10;49.10;;;;;;5055305;28;19909;-63
2022/06/10 09:21:20;;;;;;;;;;;24.10;49.00;;;;;;5055068;28;19908;-63
2022/06/10 09:23:46;;;;;;;;;;;24.20;49.20;;;;;;5073009;28;19994;-63
2022/06/10 09:26:32;;;;;;;;;;;24.20;49.20;;;;;;5073103;28;19916;-63
2022/06/10 09:28:57;;;;;;;;;;;24.20;49.00;;;;;;5061971;28;20353;-63
2022/06/10 09:31:39;;;;;;;;;;;24.20;49.00;;;;;;5072908;28;20003;-63
2022/06/10 09:34:37;;;;;;;;;;;24.20;48.70;;;;;;5072992;28;19908;-64
2022/06/10 09:37:09;;;;;;;;;;;24.30;49.00;;;;;;5039078;28;19909;-64
2022/06/10 09:42:31;;;;;;;;;;;24.20;49.00;;;;;;5079561;28;19919;-63
2022/06/10 09:44:57;;;;;;;;;;;24.20;49.10;;;;;;5072757;28;19974;-63
2022/06/10 09:47:41;;;;;;;;;;;24.20;48.90;;;;;;5072611;28;19920;-63
2022/06/10 09:50:07;;;;;;;;;;;24.20;48.70;;;;;;5072785;28;19927;-63
2022/06/10 09:52:34;;;;;;;;;;;24.30;48.70;;;;;;5076763;28;20374;-63
2022/06/10 09:55:17;;;;;;;;;;;24.30;49.00;;;;;;5076596;28;19916;-63
2022/06/10 09:58:01;;;;;;;;;;;24.30;49.70;;;;;;5065624;28;20007;-63
2022/06/10 10:00:31;;;;;;;;;;;24.20;48.90;;;;;;5076518;28;20303;-63
2022/06/10 10:03:05;;;;;;;;;;;24.20;48.90;;;;;;5076565;28;20387;-63
2022/06/10 10:05:33;;;;;;;;;;;24.30;48.90;;;;;;5076464;28;19932;-63
2022/06/10 10:08:02;;;;;;;;;;;24.30;48.90;;;;;;5076648;28;20417;-63
2022/06/10 10:10:35;;;;;;;;;;;24.30;48.60;;;;;;5058495;28;20269;-63
2022/06/10 10:13:06;;;;;;;;;;;24.30;48.60;;;;;;5058554;28;20010;-63
2022/06/10 10:15:34;;;;;;;;;;;24.30;48.60;;;;;;5076292;28;19969;-63
2022/06/10 10:18:26;;;;;;;;;;;24.40;48.60;;;;;;5076154;28;19908;-63
2022/06/10 10:21:07;;;;;;;;;;;24.30;48.60;;;;;;5072999;28;19916;-63
2022/06/10 10:23:39;;;;;;;;;;;24.40;49.50;;;;;;5076215;28;19920;-61
2022/06/10 10:26:06;;;;;;;;;;;24.30;48.90;;;;;;5076041;28;19961;-61
2022/06/10 10:28:33;;;;;;;;;;;24.30;49.00;;;;;;5076092;28;19908;-61
2022/06/10 10:31:05;;;;;;;;;;;24.30;49.00;;;;;;5058238;28;19920;-60
2022/06/10 10:33:31;;;;;;;;;;;24.30;48.50;;;;;;5058043;28;19995;-61
2022/06/10 10:35:56;;;;;;;;;;;24.30;48.50;;;;;;5075888;28;20025;-61
2022/06/10 10:38:28;;;;;;;;;;;24.30;48.50;;;;;;5075867;28;19912;-61
2022/06/10 10:40:53;;;;;;;;;;;24.30;48.50;;;;;;5075822;28;19909;-61
2022/06/10 10:43:20;;;;;;;;;;;24.30;48.50;;;;;;5075712;28;19934;-61
2022/06/10 10:45:56;;;;;;;;;;;24.30;48.60;;;;;;5075745;28;19958;-61
2022/06/10 10:48:26;;;;;;;;;;;24.40;48.50;;;;;;5075535;28;19920;-62
2022/06/10 10:51:03;;;;;;;;;;;24.30;48.60;;;;;;5057653;28;19912;-61
2022/06/10 10:53:36;;;;;;;;;;;24.30;48.50;;;;;;5057636;28;20007;-61
2022/06/10 10:56:02;;;;;;;;;;;24.30;48.40;;;;;;5057671;28;20257;-61
2022/06/10 10:58:37;;;;;;;;;;;24.30;48.60;;;;;;5057857;28;19913;-61
2022/06/10 11:01:06;;;;;;;;;;;24.30;48.70;;;;;;5057630;28;19908;-61
2022/06/10 11:03:45;;;;;;;;;;;24.40;48.60;;;;;;5074149;28;20360;-61
2022/06/10 11:06:27;;;;;;;;;;;24.30;48.80;;;;;;5075439;28;19914;-61
2022/06/10 11:08:57;;;;;;;;;;;24.30;48.60;;;;;;5090708;28;20348;-61
2022/06/10 11:11:24;;;;;;;;;;;24.40;48.50;;;;;;5075329;28;19966;-61
2022/06/10 11:13:51;;;;;;;;;;;24.40;48.40;;;;;;5075262;28;19912;-61
2022/06/10 11:16:17;;;;;;;;;;;24.40;48.40;;;;;;5057416;28;19962;-61
2022/06/10 11:18:42;;;;;;;;;;;24.40;48.40;;;;;;5075200;28;20368;-61
2022/06/10 11:21:08;;;;;;;;;;;24.40;48.40;;;;;;5075036;28;19916;-61
2022/06/10 11:23:33;;;;;;;;;;;24.40;48.50;;;;;;5075054;28;19915;-61
2022/06/10 11:26:06;;;;;;;;;;;24.40;48.40;;;;;;5074921;28;19915;-61
2022/06/10 11:28:35;;;;;;;;;;;24.40;48.40;;;;;;5074985;28;19961;-61
2022/06/10 11:31:00;;;;;;;;;;;24.40;48.60;;;;;;5074719;28;19961;-61
2022/06/10 11:33:46;;;;;;;;;;;24.40;48.70;;;;;;5074831;28;19996;-61
2022/06/10 11:36:13;;;;;;;;;;;24.40;48.80;;;;;;5056193;28;19915;-60
2022/06/10 11:39:05;;;;;;;;;;;24.40;48.90;;;;;;5056877;28;19908;-61
2022/06/10 11:41:31;;;;;;;;;;;24.40;48.80;;;;;;5057118;28;19994;-61
2022/06/10 11:44:02;;;;;;;;;;;24.40;48.70;;;;;;5074632;28;20023;-61
2022/06/10 11:46:29;;;;;;;;;;;24.40;48.30;;;;;;5074402;28;19912;-61
2022/06/10 11:48:54;;;;;;;;;;;24.40;48.10;;;;;;5056958;28;20296;-61
2022/06/10 11:51:23;;;;;;;;;;;24.50;48.10;;;;;;5074479;28;20002;-60
2022/06/10 11:54:00;;;;;;;;;;;24.50;48.10;;;;;;5056482;28;19908;-61
2022/06/10 12:01:58;;;;;;;;;;;24.50;48.20;;;;;;5059057;28;19920;-61
2022/06/10 12:04:25;;;;;;;;;;;24.50;48.10;;;;;;5056243;28;19908;-61
2022/06/10 12:06:56;;;;;;;;;;;24.60;48.30;;;;;;5074143;28;20288;-61
2022/06/10 12:09:25;;;;;;;;;;;24.60;48.30;;;;;;5073985;28;19990;-61
2022/06/10 12:11:52;;;;;;;;;;;24.60;48.50;;;;;;5056171;28;20391;-62
2022/06/10 12:14:41;;;;;;;;;;;24.50;48.20;;;;;;5055674;28;19913;-61
2022/06/10 12:17:14;;;;;;;;;;;24.60;48.20;;;;;;5065832;28;19917;-61
2022/06/10 12:19:50;;;;;;;;;;;24.70;48.30;;;;;;5073735;28;20050;-61
2022/06/10 12:22:15;;;;;;;;;;;24.70;48.00;;;;;;5056003;28;19940;-61
2022/06/10 12:24:41;;;;;;;;;;;24.70;47.90;;;;;;5055856;28;19967;-61
2022/06/10 12:27:11;;;;;;;;;;;24.80;47.90;;;;;;5073745;28;19920;-61
2022/06/10 12:29:39;;;;;;;;;;;24.80;47.80;;;;;;5055895;28;20291;-61
2022/06/10 12:32:23;;;;;;;;;;;24.80;47.90;;;;;;5073570;28;19913;-61
2022/06/10 12:34:56;;;;;;;;;;;24.80;47.90;;;;;;5073510;28;19908;-61
2022/06/10 12:37:21;;;;;;;;;;;24.80;48.10;;;;;;5055853;28;19908;-62
2022/06/10 12:39:48;;;;;;;;;;;24.70;48.00;;;;;;5073449;28;20448;-61
2022/06/10 12:42:17;;;;;;;;;;;24.70;47.90;;;;;;5072988;28;19952;-61
2022/06/10 12:44:46;;;;;;;;;;;24.80;48.20;;;;;;5073520;28;19909;-61
2022/06/10 12:47:12;;;;;;;;;;;24.80;48.20;;;;;;5073150;28;19920;-61
2022/06/10 12:49:42;;;;;;;;;;;24.80;47.90;;;;;;5055576;28;19924;-61
2022/06/10 12:52:15;;;;;;;;;;;24.90;48.00;;;;;;5072506;28;22361;-61
2022/06/10 12:55:00;;;;;;;;;;;24.90;47.90;;;;;;5055493;28;19908;-61
2022/06/10 12:57:36;;;;;;;;;;;24.90;47.80;;;;;;5055636;28;20399;-61
2022/06/10 13:00:17;;;;;;;;;;;24.90;47.90;;;;;;5073230;28;20291;-62
2022/06/10 13:02:44;;;;;;;;;;;24.90;48.00;;;;;;5073292;28;19909;-61
2022/06/10 13:05:19;;;;;;;;;;;24.90;48.00;;;;;;5055247;28;20237;-61
2022/06/10 13:07:45;;;;;;;;;;;24.90;48.10;;;;;;5055327;28;20400;-61
2022/06/10 13:10:37;;;;;;;;;;;24.90;48.00;;;;;;5072930;28;20008;-61
2022/06/10 13:13:21;;;;;;;;;;;24.90;48.10;;;;;;5055164;28;19966;-61
2022/06/10 13:15:46;;;;;;;;;;;24.90;48.10;;;;;;5055513;28;20283;-61
2022/06/10 13:18:17;;;;;;;;;;;24.90;48.00;;;;;;5072928;28;19908;-61
2022/06/10 13:20:44;;;;;;;;;;;25.00;48.10;;;;;;5073016;28;19908;-61
2022/06/10 13:23:12;;;;;;;;;;;25.00;48.20;;;;;;5055141;28;19915;-61
2022/06/10 13:25:38;;;;;;;;;;;24.90;48.10;;;;;;5054761;28;20003;-61
2022/06/10 13:28:11;;;;;;;;;;;25.00;48.40;;;;;;5072809;28;20047;-61
2022/06/10 13:30:36;;;;;;;;;;;24.90;48.20;;;;;;5073043;28;19938;-61
2022/06/10 13:33:06;;;;;;;;;;;25.00;48.60;;;;;;5054968;28;19908;-61
2022/06/10 13:35:33;;;;;;;;;;;24.90;48.40;;;;;;5073234;28;19931;-61
2022/06/10 13:38:00;;;;;;;;;;;24.90;48.40;;;;;;5072804;28;20284;-61
2022/06/10 13:40:26;;;;;;;;;;;25.00;48.50;;;;;;5054847;28;19961;-61
2022/06/10 13:42:52;;;;;;;;;;;25.00;48.60;;;;;;5054847;28;20326;-61
2022/06/10 13:45:28;;;;;;;;;;;25.00;48.60;;;;;;5072746;28;19963;-61
2022/06/10 13:47:55;;;;;;;;;;;25.00;48.40;;;;;;5054838;28;20292;-61
2022/06/10 13:50:32;;;;;;;;;;;25.00;48.60;;;;;;5054821;28;19974;-61
2022/06/10 13:53:04;;;;;;;;;;;25.00;48.60;;;;;;5079385;28;19919;-60
2022/06/10 13:55:29;;;;;;;;;;;25.00;48.60;;;;;;5072632;28;19999;-61
2022/06/10 13:58:15;;;;;;;;;;;25.00;48.60;;;;;;5072660;28;19940;-61
2022/06/10 14:00:42;;;;;;;;;;;25.00;48.60;;;;;;5055047;28;19923;-61
2022/06/10 14:03:19;;;;;;;;;;;25.00;48.60;;;;;;5072526;28;20376;-61
2022/06/10 14:05:45;;;;;;;;;;;25.00;48.60;;;;;;5054814;28;19908;-61
2022/06/10 14:08:13;;;;;;;;;;;25.00;48.60;;;;;;5072422;28;19908;-61
2022/06/10 14:10:45;;;;;;;;;;;25.00;48.60;;;;;;5054509;28;19913;-61
2022/06/10 14:13:18;;;;;;;;;;;25.00;48.60;;;;;;5072518;28;19935;-61
2022/06/10 14:15:51;;;;;;;;;;;25.00;49.20;;;;;;5054651;28;19908;-62
2022/06/10 14:18:17;;;;;;;;;;;25.00;48.60;;;;;;5054571;28;20373;-62
2022/06/10 14:20:43;;;;;;;;;;;25.00;48.70;;;;;;5087985;28;20253;-61
2022/06/10 14:23:26;;;;;;;;;;;25.00;48.80;;;;;;5072367;28;19916;-61
2022/06/10 14:26:10;;;;;;;;;;;24.90;48.70;;;;;;5072385;28;19916;-61
2022/06/10 14:28:36;;;;;;;;;;;25.00;48.80;;;;;;5072342;28;20413;-61
2022/06/10 14:31:01;;;;;;;;;;;25.00;48.80;;;;;;5072190;28;19912;-61
2022/06/10 14:33:30;;;;;;;;;;;25.00;49.00;;;;;;5072388;28;20101;-61
2022/06/10 14:36:25;;;;;;;;;;;25.00;49.00;;;;;;5072201;28;19952;-61
2022/06/10 14:39:07;;;;;;;;;;;25.00;48.90;;;;;;5062365;28;19909;-61
2022/06/10 14:41:33;;;;;;;;;;;25.00;48.90;;;;;;5058330;28;20363;-61
2022/06/10 14:44:12;;;;;;;;;;;25.00;48.90;;;;;;5075930;28;19909;-61